createdAt,value
2018-02-23T00:01:51.060Z,29.10
2018-02-23T00:04:20.863Z,27.97
2018-02-23T00:06:50.406Z,27.00
2018-02-23T00:09:20.021Z,25.97
2018-02-23T00:11:49.591Z,29.90
2018-02-23T00:14:19.204Z,29.37
2018-02-23T00:16:48.745Z,27.03
2018-02-23T00:19:18.315Z,26.13
2018-02-23T00:21:47.890Z,26.77
2018-02-23T00:24:17.435Z,27.00
2018-02-23T00:26:46.991Z,28.87
2018-02-23T00:29:16.565Z,29.10
2018-02-23T00:31:46.083Z,25.70
2018-02-23T00:34:15.650Z,27.30
2018-02-23T00:36:52.631Z,28.93
2018-02-23T00:39:22.193Z,25.30
2018-02-23T00:41:51.704Z,26.47
2018-02-23T00:44:21.233Z,24.10
2018-02-23T00:46:51.127Z,23.70
2018-02-23T00:49:20.703Z,25.57
2018-02-23T00:51:54.038Z,24.90
2018-02-23T00:54:23.612Z,24.90
2018-02-23T00:56:53.166Z,26.20
2018-02-23T00:59:22.952Z,24.27
2018-02-23T01:01:52.547Z,26.73
2018-02-23T01:04:22.127Z,27.20
2018-02-23T01:06:51.653Z,26.37
2018-02-23T01:09:21.223Z,26.20
2018-02-23T01:11:50.834Z,25.50
2018-02-23T01:14:20.325Z,25.17
2018-02-23T01:16:49.905Z,25.77
2018-02-23T01:19:26.518Z,25.03
2018-02-23T01:21:56.082Z,24.13
2018-02-23T01:24:25.623Z,24.57
2018-02-23T01:27:07.447Z,23.77
2018-02-23T01:29:37.039Z,22.07
2018-02-23T01:32:06.551Z,21.90
2018-02-23T01:34:36.113Z,24.63
2018-02-23T01:37:05.710Z,22.40
2018-02-23T01:39:41.258Z,20.20
2018-02-23T01:42:17.376Z,22.77
2018-02-23T01:44:46.904Z,21.37
2018-02-23T01:47:16.424Z,21.97
2018-02-23T01:49:45.947Z,23.30
2018-02-23T01:52:15.523Z,20.87
2018-02-23T01:54:45.123Z,22.40
2018-02-23T01:57:14.641Z,25.00
2018-02-23T01:59:44.178Z,23.40
2018-02-23T02:02:14.612Z,23.43
2018-02-23T02:04:44.206Z,24.83
2018-02-23T02:07:15.974Z,23.10
2018-02-23T02:09:45.542Z,21.03
2018-02-23T02:12:15.134Z,20.57
2018-02-23T02:14:45.876Z,22.60
2018-02-23T02:17:15.948Z,21.03
2018-02-23T02:19:45.523Z,23.20
2018-02-23T02:22:21.289Z,21.50
2018-02-23T02:24:51.018Z,23.80
2018-02-23T02:27:20.592Z,25.37
2018-02-23T02:29:50.167Z,21.40
2018-02-23T02:32:19.926Z,21.53
2018-02-23T02:34:49.515Z,21.83
2018-02-23T02:37:19.097Z,25.10
2018-02-23T02:39:48.706Z,21.33
2018-02-23T02:42:25.976Z,22.53
2018-02-23T02:45:00.928Z,21.90
2018-02-23T02:47:30.501Z,21.80
2018-02-23T02:50:00.024Z,21.47
2018-02-23T02:52:35.945Z,21.80
2018-02-23T02:55:07.001Z,22.03
2018-02-23T02:57:37.172Z,21.80
2018-02-23T03:00:07.968Z,23.53
2018-02-23T03:02:37.622Z,21.57
2018-02-23T03:05:13.608Z,21.67
2018-02-23T03:07:45.318Z,19.63
2018-02-23T03:10:15.203Z,19.10
2018-02-23T03:12:44.787Z,17.80
2018-02-23T03:15:14.608Z,18.80
2018-02-23T03:17:44.290Z,19.37
2018-02-23T03:20:14.648Z,19.03
2018-02-23T03:22:50.344Z,17.27
2018-02-23T03:25:20.637Z,19.20
2018-02-23T03:27:50.494Z,20.77
2018-02-23T03:30:20.129Z,18.30
2018-02-23T03:32:49.793Z,16.63
2018-02-23T03:35:25.445Z,16.60
2018-02-23T03:37:55.102Z,15.07
2018-02-23T03:40:24.705Z,15.33
2018-02-23T03:42:54.372Z,15.57
2018-02-23T03:45:24.957Z,15.20
2018-02-23T03:47:54.483Z,13.93
2018-02-23T03:50:24.095Z,14.10
2018-02-23T03:53:01.246Z,13.47
2018-02-23T03:55:30.837Z,12.87
2018-02-23T03:58:13.405Z,11.83
2018-02-23T04:00:42.950Z,12.80
2018-02-23T04:03:12.522Z,12.23
2018-02-23T04:05:42.043Z,12.67
2018-02-23T04:08:11.856Z,11.67
2018-02-23T04:10:41.824Z,12.33
2018-02-23T04:13:12.295Z,10.37
2018-02-23T04:15:41.876Z,10.33
2018-02-23T04:18:11.392Z,10.13
2018-02-23T04:20:40.963Z,10.67
2018-02-23T04:23:10.608Z,9.40
2018-02-23T04:25:40.155Z,9.90
2018-02-23T04:28:09.739Z,9.57
2018-02-23T04:30:39.359Z,9.30
2018-02-23T04:33:08.951Z,9.40
2018-02-23T04:35:38.481Z,9.50
2018-02-23T04:38:08.760Z,8.17
2018-02-23T04:40:38.330Z,9.20
2018-02-23T04:43:07.917Z,10.83
2018-02-23T04:45:37.464Z,9.43
2018-02-23T04:48:09.303Z,10.00
2018-02-23T04:50:38.853Z,9.73
2018-02-23T04:53:08.440Z,11.07
2018-02-23T04:55:38.016Z,11.43
2018-02-23T04:58:07.577Z,10.27
2018-02-23T05:00:37.188Z,11.90
2018-02-23T05:03:06.752Z,13.40
2018-02-23T05:05:36.406Z,14.40
2018-02-23T05:08:06.825Z,14.60
2018-02-23T05:10:36.466Z,14.00
2018-02-23T05:13:06.117Z,14.80
2018-02-23T05:15:35.713Z,13.87
2018-02-23T05:18:05.292Z,14.43
2018-02-23T05:20:34.836Z,15.20
2018-02-23T05:23:10.976Z,16.37
2018-02-23T05:25:40.570Z,15.63
2018-02-23T05:28:10.140Z,15.60
2018-02-23T05:30:39.676Z,14.33
2018-02-23T05:33:10.942Z,15.13
2018-02-23T05:35:40.504Z,13.30
2018-02-23T05:38:10.154Z,13.03
2018-02-23T05:40:39.780Z,11.77
2018-02-23T05:43:09.652Z,12.80
2018-02-23T05:45:52.318Z,12.00
2018-02-23T05:48:30.136Z,11.67
2018-02-23T05:50:59.776Z,10.20
2018-02-23T05:53:29.589Z,10.60
2018-02-23T05:56:01.710Z,11.17
2018-02-23T05:58:31.405Z,11.37
2018-02-23T06:03:35.530Z,11.27
2018-02-23T06:06:11.476Z,10.50
2018-02-23T06:08:41.752Z,10.30
2018-02-23T06:11:35.138Z,12.03
2018-02-23T06:14:06.061Z,11.60
2018-02-23T06:16:35.702Z,12.30
2018-02-23T06:19:05.332Z,11.83
2018-02-23T06:21:43.470Z,10.80
2018-02-23T06:24:19.560Z,12.77
2018-02-23T06:26:50.988Z,11.50
2018-02-23T06:29:21.291Z,11.93
2018-02-23T06:31:58.245Z,12.10
2018-02-23T06:34:29.869Z,12.03
2018-02-23T06:36:59.477Z,12.80
2018-02-23T06:39:29.988Z,12.93
2018-02-23T06:42:06.591Z,12.20
2018-02-23T06:44:36.196Z,11.83
2018-02-23T06:47:12.687Z,13.43
2018-02-23T06:49:42.328Z,15.63
2018-02-23T06:52:20.313Z,16.53
2018-02-23T06:54:51.054Z,14.00
2018-02-23T06:57:20.655Z,14.30
2018-02-23T06:59:52.277Z,14.53
2018-02-23T07:02:33.708Z,14.00
2018-02-23T07:05:04.195Z,14.07
2018-02-23T07:07:33.838Z,13.60
2018-02-23T07:10:20.250Z,13.87
2018-02-23T07:13:02.143Z,13.97
2018-02-23T07:18:06.426Z,15.60
2018-02-23T07:20:36.237Z,14.27
2018-02-23T07:23:06.310Z,13.40
2018-02-23T07:25:36.027Z,15.07
2018-02-23T07:28:05.668Z,14.10
2018-02-23T07:30:50.002Z,12.90
2018-02-23T07:33:23.510Z,13.30
2018-02-23T07:35:53.484Z,13.20
2018-02-23T07:41:00.921Z,15.07
2018-02-23T07:43:30.934Z,14.33
2018-02-23T07:46:00.772Z,13.20
2018-02-23T07:48:44.858Z,11.37
2018-02-23T07:51:19.611Z,11.50
2018-02-23T07:53:49.668Z,11.30
2018-02-23T07:56:26.059Z,11.73
2018-02-23T08:01:44.707Z,11.20
2018-02-23T08:07:04.314Z,13.10
2018-02-23T08:22:34.780Z,12.70
2018-02-23T08:25:10.352Z,12.37
2018-02-23T08:27:40.349Z,13.63
2018-02-23T08:30:10.811Z,13.17
2018-02-23T08:32:40.461Z,12.53
2018-02-23T08:35:10.095Z,15.00
2018-02-23T08:37:41.124Z,12.97
2018-02-23T08:42:51.027Z,11.83
2018-02-23T08:45:20.642Z,12.17
2018-02-23T08:47:50.259Z,15.00
2018-02-23T08:50:19.835Z,13.43
2018-02-23T08:52:49.765Z,12.47
2018-02-23T08:55:23.874Z,11.00
2018-02-23T08:57:53.472Z,13.60
2018-02-23T09:00:27.055Z,12.67
2018-02-23T09:02:56.623Z,12.47
2018-02-23T09:05:26.772Z,12.43
2018-02-23T09:07:56.413Z,11.30
2018-02-23T09:10:27.526Z,10.87
2018-02-23T09:12:57.096Z,11.30
2018-02-23T09:15:26.658Z,10.87
2018-02-23T09:17:56.438Z,9.90
2018-02-23T09:20:26.225Z,11.67
2018-02-23T09:22:55.779Z,10.47
2018-02-23T09:25:25.608Z,10.30
2018-02-23T09:27:55.218Z,10.70
2018-02-23T09:30:32.765Z,9.90
2018-02-23T09:33:09.390Z,10.13
2018-02-23T09:35:38.930Z,7.40
2018-02-23T09:38:08.470Z,10.00
2018-02-23T09:40:37.991Z,9.60
2018-02-23T09:43:07.679Z,10.27
2018-02-23T09:45:38.655Z,10.80
2018-02-23T09:48:08.254Z,10.00
2018-02-23T09:50:37.850Z,9.07
2018-02-23T09:53:07.416Z,10.20
2018-02-23T09:55:37.818Z,10.03
2018-02-23T09:58:07.544Z,10.20
2018-02-23T10:00:37.948Z,11.47
2018-02-23T10:03:08.224Z,10.57
2018-02-23T10:05:37.799Z,10.90
2018-02-23T10:08:14.673Z,13.13
2018-02-23T10:10:44.269Z,11.73
2018-02-23T10:13:19.853Z,10.90
2018-02-23T10:15:49.431Z,12.30
2018-02-23T10:18:19.112Z,13.80
2018-02-23T10:20:51.228Z,12.23
2018-02-23T10:23:24.631Z,11.70
2018-02-23T10:25:54.252Z,12.17
2018-02-23T10:28:24.706Z,11.50
2018-02-23T10:30:54.261Z,11.30
2018-02-23T10:33:24.804Z,11.60
2018-02-23T10:35:54.389Z,10.90
2018-02-23T10:38:23.952Z,11.33
2018-02-23T10:40:56.837Z,10.93
2018-02-23T10:43:26.500Z,10.60
2018-02-23T10:45:56.136Z,10.30
2018-02-23T10:48:39.441Z,10.37
2018-02-23T10:51:09.059Z,12.17
2018-02-23T10:53:38.607Z,12.60
2018-02-23T10:56:08.148Z,10.73
2018-02-23T10:58:37.788Z,11.03
2018-02-23T11:01:08.072Z,9.80
2018-02-23T11:03:37.638Z,11.93
2018-02-23T11:06:07.268Z,10.07
2018-02-23T11:08:36.878Z,11.03
2018-02-23T11:11:09.110Z,11.17
2018-02-23T11:13:45.767Z,12.77
2018-02-23T11:16:15.307Z,11.97
2018-02-23T11:18:44.847Z,12.80
2018-02-23T11:21:14.397Z,13.70
2018-02-23T11:23:44.151Z,11.23
2018-02-23T11:26:15.315Z,11.17
2018-02-23T11:28:44.924Z,13.07
2018-02-23T11:31:15.279Z,12.40
2018-02-23T11:33:51.145Z,13.83
2018-02-23T11:36:20.719Z,14.10
2018-02-23T11:38:50.622Z,12.93
2018-02-23T11:41:20.184Z,12.77
2018-02-23T11:43:49.758Z,12.17
2018-02-23T11:46:19.340Z,13.20
2018-02-23T11:49:01.912Z,13.50
2018-02-23T11:51:41.731Z,12.63
2018-02-23T11:54:11.371Z,11.87
2018-02-23T11:56:40.940Z,12.17
2018-02-23T11:59:10.963Z,14.17
2018-02-23T12:01:40.508Z,14.27
2018-02-23T12:04:10.018Z,13.03
2018-02-23T12:06:45.599Z,13.43
2018-02-23T12:09:15.176Z,13.27
2018-02-23T12:11:44.943Z,13.93
2018-02-23T12:14:15.431Z,12.93
2018-02-23T12:16:44.995Z,13.37
2018-02-23T12:19:17.495Z,14.07
2018-02-23T12:21:47.055Z,13.20
2018-02-23T12:24:16.589Z,14.63
2018-02-23T12:26:46.172Z,14.13
2018-02-23T12:29:22.476Z,14.10
2018-02-23T12:31:52.726Z,12.70
2018-02-23T12:34:22.285Z,13.63
2018-02-23T12:36:51.858Z,13.20
2018-02-23T12:39:27.479Z,14.20
2018-02-23T12:41:57.069Z,14.40
2018-02-23T12:44:26.645Z,14.13
2018-02-23T12:46:56.209Z,16.00
2018-02-23T12:49:26.618Z,15.03
2018-02-23T12:51:56.219Z,16.53
2018-02-23T12:54:25.843Z,14.43
2018-02-23T12:56:56.426Z,15.23
2018-02-23T12:59:26.127Z,13.70
2018-02-23T13:01:55.661Z,14.60
2018-02-23T13:04:25.246Z,15.13
2018-02-23T13:06:55.462Z,15.30
2018-02-23T13:09:25.025Z,15.23
2018-02-23T13:12:00.564Z,15.17
2018-02-23T13:14:36.823Z,13.30
2018-02-23T13:17:06.403Z,16.47
2018-02-23T13:19:35.963Z,16.60
2018-02-23T13:22:12.865Z,15.30
2018-02-23T13:24:42.472Z,15.77
2018-02-23T13:27:17.698Z,15.33
2018-02-23T13:30:02.549Z,15.97
2018-02-23T13:32:32.101Z,17.87
2018-02-23T13:35:10.078Z,16.83
2018-02-23T13:37:39.982Z,17.13
2018-02-23T13:40:24.534Z,16.53
2018-02-23T13:42:54.307Z,17.30
2018-02-23T13:45:32.647Z,16.67
2018-02-23T13:48:02.857Z,16.67
2018-02-23T13:50:32.489Z,15.03
2018-02-23T13:53:02.100Z,16.47
2018-02-23T13:55:31.676Z,14.80
2018-02-23T13:58:01.479Z,16.70
2018-02-23T14:00:31.011Z,16.20
2018-02-23T14:03:00.515Z,16.90
2018-02-23T14:05:38.303Z,16.67
2018-02-23T14:08:07.948Z,15.57
2018-02-23T14:10:37.508Z,16.47
2018-02-23T14:13:20.773Z,15.93
2018-02-23T14:15:51.330Z,16.53
2018-02-23T14:18:21.152Z,15.57
2018-02-23T14:20:50.756Z,16.27
2018-02-23T14:23:20.310Z,16.80
2018-02-23T14:25:49.815Z,14.77
2018-02-23T14:28:19.390Z,14.77
2018-02-23T14:30:49.438Z,16.50
2018-02-23T14:33:19.025Z,15.53
2018-02-23T14:35:48.624Z,14.20
2018-02-23T14:38:18.197Z,16.17
2018-02-23T14:40:47.738Z,15.97
2018-02-23T14:43:17.324Z,15.53
2018-02-23T14:45:46.875Z,16.23
2018-02-23T14:48:36.214Z,14.83
2018-02-23T14:51:10.821Z,13.40
2018-02-23T14:53:40.398Z,14.63
2018-02-23T14:56:12.300Z,15.13
2018-02-23T14:58:49.081Z,15.27
2018-02-23T15:01:18.661Z,14.47
2018-02-23T15:04:00.614Z,14.60
2018-02-23T15:06:38.720Z,15.83
2018-02-23T15:09:08.522Z,14.53
2018-02-23T15:11:38.084Z,16.00
2018-02-23T15:14:08.474Z,15.57
2018-02-23T15:16:38.040Z,14.40
2018-02-23T15:19:07.647Z,14.97
2018-02-23T15:21:37.242Z,14.23
2018-02-23T15:24:06.807Z,15.10
2018-02-23T15:26:36.644Z,15.00
2018-02-23T15:29:13.756Z,16.43
2018-02-23T15:31:49.390Z,14.17
2018-02-23T15:34:19.014Z,14.60
2018-02-23T15:36:48.639Z,14.23
2018-02-23T15:39:18.326Z,14.40
2018-02-23T15:41:47.910Z,13.33
2018-02-23T15:44:17.536Z,12.20
2018-02-23T15:46:47.167Z,12.50
2018-02-23T15:49:40.951Z,11.60
2018-02-23T15:52:16.991Z,12.10
2018-02-23T15:54:46.649Z,8.97
2018-02-23T15:57:32.005Z,9.20
2018-02-23T16:00:02.772Z,9.10
2018-02-23T16:02:32.388Z,9.60
2018-02-23T16:05:02.229Z,8.80
2018-02-23T16:07:44.862Z,10.20
2018-02-23T16:10:14.788Z,9.23
2018-02-23T16:12:44.465Z,9.37
2018-02-23T16:15:14.046Z,8.97
2018-02-23T16:17:43.598Z,8.80
2018-02-23T16:20:13.171Z,8.53
2018-02-23T16:22:50.469Z,9.60
2018-02-23T16:25:27.765Z,8.67
2018-02-23T16:28:04.630Z,8.90
2018-02-23T16:30:34.350Z,9.07
2018-02-23T16:33:17.381Z,10.00
2018-02-23T16:35:46.962Z,8.70
2018-02-23T16:38:30.149Z,9.03
2018-02-23T16:40:59.940Z,9.80
2018-02-23T16:43:29.499Z,9.23
2018-02-23T16:45:59.069Z,10.83
2018-02-23T16:48:28.665Z,9.33
2018-02-23T16:50:58.257Z,10.43
2018-02-23T16:53:42.548Z,10.67
2018-02-23T16:56:19.792Z,11.60
2018-02-23T16:58:50.607Z,12.20
2018-02-23T17:01:21.747Z,9.60
2018-02-23T17:03:51.550Z,8.70
2018-02-23T17:06:21.160Z,9.80
2018-02-23T17:08:50.920Z,11.10
2018-02-23T17:11:20.523Z,9.63
2018-02-23T17:13:50.095Z,9.30
2018-02-23T17:16:31.854Z,9.60
2018-02-23T17:19:01.452Z,10.30
2018-02-23T17:21:32.435Z,9.70
2018-02-23T17:24:09.275Z,9.27
2018-02-23T17:26:40.440Z,9.97
2018-02-23T17:29:18.720Z,9.10
2018-02-23T17:31:48.495Z,11.10
2018-02-23T17:34:18.655Z,9.80
2018-02-23T17:36:48.232Z,8.13
2018-02-23T17:39:30.400Z,8.27
2018-02-23T17:42:01.376Z,9.20
2018-02-23T17:44:30.940Z,8.53
2018-02-23T17:47:00.526Z,9.30
2018-02-23T17:49:35.501Z,10.10
2018-02-23T17:52:05.466Z,10.90
2018-02-23T17:54:39.492Z,9.70
2018-02-23T17:57:10.078Z,8.50
2018-02-23T17:59:40.306Z,9.63
2018-02-23T18:02:09.863Z,8.90
2018-02-23T18:04:39.769Z,10.60
2018-02-23T18:07:10.333Z,9.63
2018-02-23T18:09:40.804Z,10.30
2018-02-23T18:12:10.435Z,9.60
2018-02-23T18:14:40.091Z,9.63
2018-02-23T18:17:09.612Z,9.87
2018-02-23T18:19:39.389Z,8.23
2018-02-23T18:22:09.295Z,8.67
2018-02-23T18:24:38.895Z,9.40
2018-02-23T18:27:21.218Z,8.67
2018-02-23T18:29:51.180Z,8.60
2018-02-23T18:32:22.656Z,8.90
2018-02-23T18:34:53.253Z,9.70
2018-02-23T18:37:24.352Z,8.20
2018-02-23T18:40:13.265Z,8.37
2018-02-23T18:42:43.085Z,8.50
2018-02-23T18:45:12.936Z,8.23
2018-02-23T18:47:55.210Z,8.97
2018-02-23T18:50:24.850Z,8.07
2018-02-23T18:52:55.468Z,7.63
2018-02-23T18:55:25.110Z,9.10
2018-02-23T18:57:54.646Z,8.43
2018-02-23T19:00:24.186Z,8.17
2018-02-23T19:02:53.845Z,9.07
2018-02-23T19:05:25.827Z,8.10
2018-02-23T19:07:55.727Z,10.80
2018-02-23T19:10:25.629Z,10.20
2018-02-23T19:12:55.353Z,8.47
2018-02-23T19:15:24.986Z,8.47
2018-02-23T19:17:56.222Z,9.67
2018-02-23T19:20:26.008Z,9.57
2018-02-23T19:23:03.517Z,10.07
2018-02-23T19:25:33.263Z,10.10
2018-02-23T19:28:03.394Z,8.63
2018-02-23T19:30:32.992Z,10.47
2018-02-23T19:33:02.726Z,9.17
2018-02-23T19:35:45.764Z,9.57
2018-02-23T19:38:22.637Z,9.37
2018-02-23T19:40:52.438Z,9.50
2018-02-23T19:43:22.275Z,9.53
2018-02-23T19:45:51.838Z,10.37
2018-02-23T19:48:21.461Z,10.83
2018-02-23T19:50:58.562Z,9.53
2018-02-23T19:53:28.161Z,8.63
2018-02-23T19:55:58.131Z,9.20
2018-02-23T19:58:48.498Z,10.03
2018-02-23T20:01:18.112Z,9.63
2018-02-23T20:03:47.771Z,9.60
2018-02-23T20:06:17.564Z,10.23
2018-02-23T20:08:59.464Z,9.03
2018-02-23T20:11:29.094Z,8.90
2018-02-23T20:14:00.459Z,9.97
2018-02-23T20:16:30.447Z,10.70
2018-02-23T20:19:09.233Z,10.10
2018-02-23T20:21:38.854Z,9.40
2018-02-23T20:24:08.453Z,8.60
2018-02-23T20:26:43.994Z,9.50
2018-02-23T20:29:14.973Z,9.80
2018-02-23T20:31:50.873Z,9.50
2018-02-23T20:34:20.701Z,8.80
2018-02-23T20:36:52.137Z,8.30
2018-02-23T20:39:21.691Z,8.90
2018-02-23T20:42:03.147Z,9.47
2018-02-23T20:44:33.325Z,10.47
2018-02-23T20:47:02.931Z,9.83
2018-02-23T20:49:32.534Z,8.57
2018-02-23T20:52:02.180Z,9.70
2018-02-23T20:54:34.795Z,9.50
2018-02-23T20:57:04.399Z,9.30
2018-02-23T20:59:34.009Z,8.57
2018-02-23T21:02:03.923Z,9.80
2018-02-23T21:04:35.313Z,10.20
2018-02-23T21:07:05.014Z,10.00
2018-02-23T21:09:34.568Z,10.67
2018-02-23T21:12:04.129Z,10.33
2018-02-23T21:14:34.604Z,10.33
2018-02-23T21:17:04.176Z,9.73
2018-02-23T21:19:33.737Z,11.23
2018-02-23T21:22:03.351Z,10.97
2018-02-23T21:24:46.212Z,11.20
2018-02-23T21:27:22.195Z,10.53
2018-02-23T21:29:51.749Z,9.30
2018-02-23T21:32:21.550Z,10.03
2018-02-23T21:34:51.114Z,10.30
2018-02-23T21:37:20.698Z,11.00
2018-02-23T21:39:50.371Z,11.00
2018-02-23T21:42:19.999Z,10.23
2018-02-23T21:44:49.748Z,11.37
2018-02-23T21:47:19.377Z,10.70
2018-02-23T21:50:00.925Z,9.93
2018-02-23T21:52:30.442Z,10.37
2018-02-23T21:54:59.969Z,10.23
2018-02-23T21:57:29.575Z,10.27
2018-02-23T21:59:59.221Z,11.47
2018-02-23T22:02:28.972Z,10.97
2018-02-23T22:04:58.571Z,12.27
2018-02-23T22:07:28.172Z,10.50
2018-02-23T22:09:57.756Z,10.33
2018-02-23T22:12:27.308Z,9.60
2018-02-23T22:14:56.888Z,9.90
2018-02-23T22:17:26.488Z,10.57
2018-02-23T22:19:56.066Z,10.23
2018-02-23T22:22:25.659Z,11.33
2018-02-23T22:24:55.368Z,11.30
2018-02-23T22:27:24.987Z,11.60
2018-02-23T22:29:55.502Z,10.97
2018-02-23T22:32:25.125Z,11.27
2018-02-23T22:34:55.617Z,10.57
2018-02-23T22:37:25.384Z,11.60
2018-02-23T22:39:54.987Z,12.00
2018-02-23T22:42:24.528Z,13.13
2018-02-23T22:44:57.792Z,11.80
2018-02-23T22:47:27.478Z,14.27
2018-02-23T22:50:10.979Z,12.43
2018-02-23T22:52:47.874Z,12.10
2018-02-23T22:55:17.501Z,12.50
2018-02-23T22:58:06.443Z,12.47
2018-02-23T23:00:36.035Z,13.50
2018-02-23T23:03:19.003Z,12.73
2018-02-23T23:05:48.592Z,12.53
2018-02-23T23:08:25.359Z,13.53
2018-02-23T23:10:54.936Z,13.40
2018-02-23T23:13:24.637Z,12.17
2018-02-23T23:15:54.472Z,12.03
2018-02-23T23:18:37.587Z,11.70
2018-02-23T23:21:14.593Z,13.10
2018-02-23T23:23:46.140Z,12.83
2018-02-23T23:26:15.792Z,13.73
2018-02-23T23:28:45.364Z,12.57
2018-02-23T23:31:28.192Z,12.27
2018-02-23T23:34:07.069Z,12.97
2018-02-23T23:36:36.899Z,11.47
2018-02-23T23:39:06.477Z,11.60
2018-02-23T23:41:35.991Z,13.47
2018-02-23T23:44:12.425Z,12.90
2018-02-23T23:46:42.004Z,12.10
2018-02-23T23:49:15.760Z,12.40
2018-02-23T23:51:45.370Z,12.90
2018-02-23T23:54:28.339Z,13.37
2018-02-23T23:56:57.968Z,13.47
2018-02-23T23:59:27.579Z,13.30
